sensor_id;sensor_type;location;lat;lon;timestamp;P1;durP1;ratioP1;P2;durP2;ratioP2
19645;SDS011;9971;52.446;13.452;2023-04-01T00:01:54;1.45;;;1.20;;
19645;SDS011;9971;52.446;13.452;2023-04-01T00:06:57;1.35;;;1.30;;
19645;SDS011;9971;52.446;13.452;2023-04-01T00:11:59;1.90;;;1.47;;
19645;SDS011;9971;52.446;13.452;2023-04-01T00:17:02;1.90;;;1.55;;
19645;SDS011;9971;52.446;13.452;2023-04-01T00:22:04;1.80;;;1.70;;
19645;SDS011;9971;52.446;13.452;2023-04-01T00:27:06;3.50;;;1.70;;
19645;SDS011;9971;52.446;13.452;2023-04-01T00:32:09;1.62;;;1.52;;
19645;SDS011;9971;52.446;13.452;2023-04-01T00:37:12;1.80;;;1.55;;
19645;SDS011;9971;52.446;13.452;2023-04-01T00:42:14;2.00;;;1.80;;
19645;SDS011;9971;52.446;13.452;2023-04-01T00:47:18;2.63;;;1.93;;
19645;SDS011;9971;52.446;13.452;2023-04-01T00:52:21;3.27;;;1.87;;
19645;SDS011;9971;52.446;13.452;2023-04-01T00:57:24;4.90;;;2.62;;
19645;SDS011;9971;52.446;13.452;2023-04-01T01:02:25;2.08;;;1.90;;
19645;SDS011;9971;52.446;13.452;2023-04-01T01:07:32;2.37;;;1.72;;
19645;SDS011;9971;52.446;13.452;2023-04-01T01:23:50;2.20;;;1.93;;
19645;SDS011;9971;52.446;13.452;2023-04-01T01:28:52;2.10;;;1.90;;
19645;SDS011;9971;52.446;13.452;2023-04-01T01:33:58;3.45;;;1.82;;
19645;SDS011;9971;52.446;13.452;2023-04-01T01:39:03;2.07;;;1.90;;
19645;SDS011;9971;52.446;13.452;2023-04-01T01:44:06;2.62;;;1.90;;
19645;SDS011;9971;52.446;13.452;2023-04-01T01:49:08;2.27;;;1.80;;
19645;SDS011;9971;52.446;13.452;2023-04-01T01:54:13;2.00;;;1.60;;
19645;SDS011;9971;52.446;13.452;2023-04-01T01:59:14;1.70;;;1.60;;
19645;SDS011;9971;52.446;13.452;2023-04-01T02:04:17;3.23;;;2.17;;
19645;SDS011;9971;52.446;13.452;2023-04-01T02:09:19;2.53;;;1.87;;
19645;SDS011;9971;52.446;13.452;2023-04-01T02:14:28;2.17;;;1.97;;
19645;SDS011;9971;52.446;13.452;2023-04-01T02:19:36;1.77;;;1.67;;
19645;SDS011;9971;52.446;13.452;2023-04-01T02:24:36;2.17;;;1.87;;
19645;SDS011;9971;52.446;13.452;2023-04-01T02:29:39;3.13;;;2.03;;
19645;SDS011;9971;52.446;13.452;2023-04-01T02:34:41;2.02;;;1.70;;
19645;SDS011;9971;52.446;13.452;2023-04-01T02:39:43;3.50;;;2.27;;
19645;SDS011;9971;52.446;13.452;2023-04-01T02:44:45;2.60;;;2.15;;
19645;SDS011;9971;52.446;13.452;2023-04-01T02:49:48;2.60;;;2.33;;
19645;SDS011;9971;52.446;13.452;2023-04-01T02:54:51;4.70;;;2.20;;
19645;SDS011;9971;52.446;13.452;2023-04-01T02:59:53;2.85;;;2.12;;
19645;SDS011;9971;52.446;13.452;2023-04-01T03:04:55;2.05;;;1.87;;
19645;SDS011;9971;52.446;13.452;2023-04-01T03:09:58;3.15;;;2.30;;
19645;SDS011;9971;52.446;13.452;2023-04-01T03:15:00;2.22;;;1.92;;
19645;SDS011;9971;52.446;13.452;2023-04-01T03:20:02;2.33;;;1.70;;
19645;SDS011;9971;52.446;13.452;2023-04-01T03:25:05;1.80;;;1.70;;
19645;SDS011;9971;52.446;13.452;2023-04-01T03:30:09;2.30;;;1.90;;
19645;SDS011;9971;52.446;13.452;2023-04-01T03:35:12;2.45;;;2.25;;
19645;SDS011;9971;52.446;13.452;2023-04-01T03:40:14;3.60;;;2.20;;
19645;SDS011;9971;52.446;13.452;2023-04-01T03:45:16;1.80;;;1.70;;
19645;SDS011;9971;52.446;13.452;2023-04-01T03:50:19;1.98;;;1.87;;
19645;SDS011;9971;52.446;13.452;2023-04-01T03:55:21;2.90;;;2.05;;
19645;SDS011;9971;52.446;13.452;2023-04-01T04:00:24;2.00;;;1.90;;
19645;SDS011;9971;52.446;13.452;2023-04-01T04:05:26;2.22;;;1.80;;
19645;SDS011;9971;52.446;13.452;2023-04-01T04:10:29;3.72;;;1.92;;
19645;SDS011;9971;52.446;13.452;2023-04-01T04:15:31;1.98;;;1.75;;
19645;SDS011;9971;52.446;13.452;2023-04-01T04:20:34;2.80;;;1.95;;
19645;SDS011;9971;52.446;13.452;2023-04-01T04:25:36;4.10;;;2.20;;
19645;SDS011;9971;52.446;13.452;2023-04-01T04:30:40;2.80;;;2.10;;
19645;SDS011;9971;52.446;13.452;2023-04-01T04:35:42;2.60;;;2.22;;
19645;SDS011;9971;52.446;13.452;2023-04-01T04:40:45;2.30;;;2.10;;
19645;SDS011;9971;52.446;13.452;2023-04-01T04:45:49;4.10;;;2.33;;
19645;SDS011;9971;52.446;13.452;2023-04-01T04:50:51;2.58;;;2.37;;
19645;SDS011;9971;52.446;13.452;2023-04-01T04:55:54;2.80;;;2.40;;
19645;SDS011;9971;52.446;13.452;2023-04-01T05:00:56;4.30;;;2.17;;
19645;SDS011;9971;52.446;13.452;2023-04-01T05:05:59;3.50;;;2.15;;
19645;SDS011;9971;52.446;13.452;2023-04-01T05:11:02;3.52;;;2.10;;
19645;SDS011;9971;52.446;13.452;2023-04-01T05:16:08;4.00;;;2.30;;
19645;SDS011;9971;52.446;13.452;2023-04-01T05:21:15;2.50;;;2.20;;
19645;SDS011;9971;52.446;13.452;2023-04-01T05:26:18;5.08;;;2.55;;
19645;SDS011;9971;52.446;13.452;2023-04-01T05:31:21;2.22;;;2.02;;
19645;SDS011;9971;52.446;13.452;2023-04-01T05:36:23;2.52;;;2.08;;
19645;SDS011;9971;52.446;13.452;2023-04-01T05:41:25;4.03;;;2.22;;
19645;SDS011;9971;52.446;13.452;2023-04-01T05:46:28;3.72;;;2.90;;
19645;SDS011;9971;52.446;13.452;2023-04-01T05:51:30;5.87;;;2.50;;
19645;SDS011;9971;52.446;13.452;2023-04-01T05:56:33;4.03;;;2.45;;
19645;SDS011;9971;52.446;13.452;2023-04-01T06:01:35;2.72;;;2.05;;
19645;SDS011;9971;52.446;13.452;2023-04-01T06:06:38;3.52;;;2.40;;
19645;SDS011;9971;52.446;13.452;2023-04-01T06:11:46;2.60;;;2.00;;
19645;SDS011;9971;52.446;13.452;2023-04-01T06:17:04;3.57;;;2.40;;
19645;SDS011;9971;52.446;13.452;2023-04-01T06:28:07;4.83;;;2.47;;
19645;SDS011;9971;52.446;13.452;2023-04-01T06:33:18;3.50;;;2.50;;
19645;SDS011;9971;52.446;13.452;2023-04-01T06:38:24;2.67;;;2.22;;
19645;SDS011;9971;52.446;13.452;2023-04-01T06:43:34;3.08;;;2.15;;
19645;SDS011;9971;52.446;13.452;2023-04-01T06:48:46;6.63;;;2.37;;
19645;SDS011;9971;52.446;13.452;2023-04-01T06:54:03;2.70;;;2.33;;
19645;SDS011;9971;52.446;13.452;2023-04-01T06:59:11;2.83;;;2.17;;
19645;SDS011;9971;52.446;13.452;2023-04-01T07:04:16;3.57;;;2.10;;
19645;SDS011;9971;52.446;13.452;2023-04-01T07:09:19;4.87;;;2.57;;
19645;SDS011;9971;52.446;13.452;2023-04-01T07:14:22;4.25;;;2.20;;
19645;SDS011;9971;52.446;13.452;2023-04-01T07:19:29;3.53;;;2.70;;
19645;SDS011;9971;52.446;13.452;2023-04-01T07:24:34;3.20;;;2.40;;
19645;SDS011;9971;52.446;13.452;2023-04-01T07:29:35;4.20;;;1.95;;
19645;SDS011;9971;52.446;13.452;2023-04-01T07:34:48;3.13;;;2.23;;
19645;SDS011;9971;52.446;13.452;2023-04-01T07:40:06;3.93;;;2.17;;
19645;SDS011;9971;52.446;13.452;2023-04-01T07:45:16;2.60;;;2.00;;
19645;SDS011;9971;52.446;13.452;2023-04-01T07:50:22;5.17;;;2.43;;
19645;SDS011;9971;52.446;13.452;2023-04-01T07:55:27;2.67;;;2.07;;
19645;SDS011;9971;52.446;13.452;2023-04-01T08:00:30;2.57;;;1.93;;
19645;SDS011;9971;52.446;13.452;2023-04-01T08:05:40;2.47;;;1.90;;
19645;SDS011;9971;52.446;13.452;2023-04-01T08:10:46;3.60;;;1.83;;
19645;SDS011;9971;52.446;13.452;2023-04-01T08:21:12;2.65;;;1.80;;
19645;SDS011;9971;52.446;13.452;2023-04-01T08:26:28;3.50;;;2.98;;
19645;SDS011;9971;52.446;13.452;2023-04-01T08:31:35;3.40;;;2.70;;
19645;SDS011;9971;52.446;13.452;2023-04-01T08:36:41;4.33;;;2.72;;
19645;SDS011;9971;52.446;13.452;2023-04-01T08:41:53;3.73;;;2.60;;
19645;SDS011;9971;52.446;13.452;2023-04-01T08:46:55;4.50;;;2.90;;
19645;SDS011;9971;52.446;13.452;2023-04-01T08:52:18;2.10;;;1.90;;
19645;SDS011;9971;52.446;13.452;2023-04-01T08:57:33;2.53;;;2.33;;
19645;SDS011;9971;52.446;13.452;2023-04-01T09:03:08;2.80;;;2.60;;
19645;SDS011;9971;52.446;13.452;2023-04-01T09:08:31;4.17;;;3.77;;
19645;SDS011;9971;52.446;13.452;2023-04-01T09:14:02;3.87;;;3.57;;
19645;SDS011;9971;52.446;13.452;2023-04-01T09:19:16;4.47;;;4.10;;
19645;SDS011;9971;52.446;13.452;2023-04-01T09:24:24;4.42;;;4.05;;
19645;SDS011;9971;52.446;13.452;2023-04-01T09:34:49;5.83;;;5.33;;
19645;SDS011;9971;52.446;13.452;2023-04-01T09:40:02;6.22;;;5.60;;
19645;SDS011;9971;52.446;13.452;2023-04-01T09:45:02;6.03;;;5.62;;
19645;SDS011;9971;52.446;13.452;2023-04-01T09:50:14;6.43;;;5.83;;
19645;SDS011;9971;52.446;13.452;2023-04-01T09:55:27;6.58;;;6.08;;
19645;SDS011;9971;52.446;13.452;2023-04-01T10:25:29;5.08;;;4.78;;
19645;SDS011;9971;52.446;13.452;2023-04-01T10:30:49;6.63;;;6.10;;
19645;SDS011;9971;52.446;13.452;2023-04-01T11:01:07;4.30;;;4.00;;
19645;SDS011;9971;52.446;13.452;2023-04-01T11:06:30;4.33;;;4.03;;
19645;SDS011;9971;52.446;13.452;2023-04-01T11:11:40;4.50;;;3.85;;
19645;SDS011;9971;52.446;13.452;2023-04-01T11:18:09;4.00;;;3.70;;
19645;SDS011;9971;52.446;13.452;2023-04-01T11:32:54;3.00;;;2.80;;
19645;SDS011;9971;52.446;13.452;2023-04-01T11:38:03;3.33;;;3.03;;
19645;SDS011;9971;52.446;13.452;2023-04-01T11:43:11;2.80;;;2.60;;
19645;SDS011;9971;52.446;13.452;2023-04-01T11:48:32;3.22;;;3.00;;
19645;SDS011;9971;52.446;13.452;2023-04-01T11:53:44;2.60;;;2.40;;
19645;SDS011;9971;52.446;13.452;2023-04-01T11:58:56;2.60;;;2.40;;
19645;SDS011;9971;52.446;13.452;2023-04-01T12:04:03;2.33;;;2.23;;
19645;SDS011;9971;52.446;13.452;2023-04-01T12:14:40;2.40;;;2.00;;
19645;SDS011;9971;52.446;13.452;2023-04-01T12:20:10;1.80;;;1.70;;
19645;SDS011;9971;52.446;13.452;2023-04-01T12:30:23;2.03;;;1.93;;
19645;SDS011;9971;52.446;13.452;2023-04-01T12:35:25;2.22;;;1.95;;
19645;SDS011;9971;52.446;13.452;2023-04-01T12:41:06;2.12;;;2.02;;
19645;SDS011;9971;52.446;13.452;2023-04-01T12:47:07;1.70;;;1.60;;
19645;SDS011;9971;52.446;13.452;2023-04-01T12:51:17;2.33;;;1.90;;
19645;SDS011;9971;52.446;13.452;2023-04-01T13:01:50;2.67;;;2.47;;
19645;SDS011;9971;52.446;13.452;2023-04-01T13:07:10;3.40;;;3.10;;
19645;SDS011;9971;52.446;13.452;2023-04-01T13:12:09;3.63;;;3.10;;
19645;SDS011;9971;52.446;13.452;2023-04-01T13:17:20;2.37;;;2.17;;
19645;SDS011;9971;52.446;13.452;2023-04-01T13:23:32;2.57;;;2.37;;
19645;SDS011;9971;52.446;13.452;2023-04-01T13:33:26;3.00;;;2.80;;
19645;SDS011;9971;52.446;13.452;2023-04-01T13:38:37;3.67;;;3.47;;
19645;SDS011;9971;52.446;13.452;2023-04-01T13:43:36;5.03;;;3.80;;
19645;SDS011;9971;52.446;13.452;2023-04-01T13:49:02;4.40;;;4.10;;
19645;SDS011;9971;52.446;13.452;2023-04-01T13:54:35;3.83;;;3.53;;
19645;SDS011;9971;52.446;13.452;2023-04-01T13:59:59;4.90;;;3.10;;
19645;SDS011;9971;52.446;13.452;2023-04-01T14:05:09;3.20;;;3.00;;
19645;SDS011;9971;52.446;13.452;2023-04-01T14:10:25;3.77;;;3.47;;
19645;SDS011;9971;52.446;13.452;2023-04-01T14:15:49;3.77;;;3.40;;
19645;SDS011;9971;52.446;13.452;2023-04-01T14:21:08;3.20;;;2.93;;
19645;SDS011;9971;52.446;13.452;2023-04-01T14:26:20;3.67;;;3.30;;
19645;SDS011;9971;52.446;13.452;2023-04-01T14:36:50;4.03;;;3.73;;
19645;SDS011;9971;52.446;13.452;2023-04-01T14:42:14;3.83;;;3.53;;
19645;SDS011;9971;52.446;13.452;2023-04-01T14:47:22;3.43;;;3.13;;
19645;SDS011;9971;52.446;13.452;2023-04-01T14:52:28;2.67;;;2.47;;
19645;SDS011;9971;52.446;13.452;2023-04-01T14:57:30;2.50;;;2.23;;
19645;SDS011;9971;52.446;13.452;2023-04-01T15:13:13;2.73;;;2.53;;
19645;SDS011;9971;52.446;13.452;2023-04-01T15:28:57;2.50;;;2.30;;
19645;SDS011;9971;52.446;13.452;2023-04-01T15:34:17;3.15;;;2.80;;
19645;SDS011;9971;52.446;13.452;2023-04-01T15:39:38;2.53;;;2.43;;
19645;SDS011;9971;52.446;13.452;2023-04-01T15:49:47;2.87;;;2.50;;
19645;SDS011;9971;52.446;13.452;2023-04-01T15:55:00;2.40;;;2.20;;
19645;SDS011;9971;52.446;13.452;2023-04-01T16:05:27;2.60;;;2.40;;
19645;SDS011;9971;52.446;13.452;2023-04-01T16:15:57;2.93;;;2.43;;
19645;SDS011;9971;52.446;13.452;2023-04-01T16:21:14;2.70;;;2.30;;
19645;SDS011;9971;52.446;13.452;2023-04-01T16:26:22;3.23;;;3.03;;
19645;SDS011;9971;52.446;13.452;2023-04-01T16:31:34;3.50;;;3.20;;
19645;SDS011;9971;52.446;13.452;2023-04-01T16:36:45;5.10;;;4.70;;
19645;SDS011;9971;52.446;13.452;2023-04-01T16:41:56;3.75;;;3.52;;
19645;SDS011;9971;52.446;13.452;2023-04-01T16:46:56;3.72;;;3.52;;
19645;SDS011;9971;52.446;13.452;2023-04-01T16:52:00;3.42;;;3.12;;
19645;SDS011;9971;52.446;13.452;2023-04-01T16:57:03;3.10;;;2.87;;
19645;SDS011;9971;52.446;13.452;2023-04-01T17:02:27;3.13;;;2.93;;
19645;SDS011;9971;52.446;13.452;2023-04-01T17:07:35;3.27;;;3.07;;
19645;SDS011;9971;52.446;13.452;2023-04-01T17:12:59;3.07;;;2.87;;
19645;SDS011;9971;52.446;13.452;2023-04-01T17:18:06;2.90;;;2.70;;
19645;SDS011;9971;52.446;13.452;2023-04-01T17:23:27;3.80;;;3.00;;
19645;SDS011;9971;52.446;13.452;2023-04-01T17:33:59;2.80;;;2.60;;
19645;SDS011;9971;52.446;13.452;2023-04-01T17:39:16;3.13;;;2.93;;
19645;SDS011;9971;52.446;13.452;2023-04-01T17:44:31;3.50;;;3.20;;
19645;SDS011;9971;52.446;13.452;2023-04-01T17:49:36;3.57;;;3.23;;
19645;SDS011;9971;52.446;13.452;2023-04-01T17:54:39;3.93;;;3.50;;
19645;SDS011;9971;52.446;13.452;2023-04-01T17:59:47;3.37;;;3.17;;
19645;SDS011;9971;52.446;13.452;2023-04-01T18:10:17;3.33;;;3.05;;
19645;SDS011;9971;52.446;13.452;2023-04-01T18:15:40;4.17;;;3.13;;
19645;SDS011;9971;52.446;13.452;2023-04-01T18:20:51;2.70;;;2.50;;
19645;SDS011;9971;52.446;13.452;2023-04-01T18:26:07;2.80;;;2.60;;
19645;SDS011;9971;52.446;13.452;2023-04-01T18:31:15;2.13;;;2.03;;
19645;SDS011;9971;52.446;13.452;2023-04-01T18:36:21;2.67;;;2.47;;
19645;SDS011;9971;52.446;13.452;2023-04-01T18:41:30;2.63;;;2.43;;
19645;SDS011;9971;52.446;13.452;2023-04-01T18:46:41;2.53;;;2.33;;
19645;SDS011;9971;52.446;13.452;2023-04-01T18:51:48;2.53;;;2.30;;
19645;SDS011;9971;52.446;13.452;2023-04-01T18:56:49;3.47;;;2.60;;
19645;SDS011;9971;52.446;13.452;2023-04-01T19:12:23;2.50;;;2.30;;
19645;SDS011;9971;52.446;13.452;2023-04-01T19:28:52;5.13;;;3.23;;
19645;SDS011;9971;52.446;13.452;2023-04-01T19:33:41;2.72;;;2.33;;
19645;SDS011;9971;52.446;13.452;2023-04-01T19:39:00;4.00;;;3.50;;
19645;SDS011;9971;52.446;13.452;2023-04-01T19:44:14;3.10;;;2.80;;
19645;SDS011;9971;52.446;13.452;2023-04-01T19:49:33;3.27;;;2.97;;
19645;SDS011;9971;52.446;13.452;2023-04-01T20:00:02;3.67;;;3.33;;
19645;SDS011;9971;52.446;13.452;2023-04-01T20:10:32;2.83;;;2.63;;
19645;SDS011;9971;52.446;13.452;2023-04-01T20:15:40;3.20;;;2.90;;
19645;SDS011;9971;52.446;13.452;2023-04-01T20:25:57;5.53;;;3.40;;
19645;SDS011;9971;52.446;13.452;2023-04-01T20:31:02;3.30;;;3.00;;
19645;SDS011;9971;52.446;13.452;2023-04-01T20:36:11;4.60;;;3.30;;
19645;SDS011;9971;52.446;13.452;2023-04-01T20:41:34;3.57;;;3.27;;
19645;SDS011;9971;52.446;13.452;2023-04-01T20:46:54;4.63;;;3.50;;
19645;SDS011;9971;52.446;13.452;2023-04-01T20:51:57;4.93;;;3.77;;
19645;SDS011;9971;52.446;13.452;2023-04-01T20:57:00;3.63;;;3.33;;
19645;SDS011;9971;52.446;13.452;2023-04-01T21:02:16;4.05;;;3.35;;
19645;SDS011;9971;52.446;13.452;2023-04-01T21:12:45;5.13;;;3.80;;
19645;SDS011;9971;52.446;13.452;2023-04-01T21:17:52;5.17;;;3.70;;
19645;SDS011;9971;52.446;13.452;2023-04-01T21:23:14;4.77;;;3.40;;
19645;SDS011;9971;52.446;13.452;2023-04-01T21:28:29;4.20;;;3.70;;
19645;SDS011;9971;52.446;13.452;2023-04-01T21:33:34;4.13;;;3.63;;
19645;SDS011;9971;52.446;13.452;2023-04-01T21:38:50;4.20;;;2.90;;
19645;SDS011;9971;52.446;13.452;2023-04-01T21:43:53;4.17;;;3.17;;
19645;SDS011;9971;52.446;13.452;2023-04-01T21:48:56;3.27;;;2.87;;
19645;SDS011;9971;52.446;13.452;2023-04-01T21:54:33;4.15;;;3.22;;
19645;SDS011;9971;52.446;13.452;2023-04-01T22:05:49;3.40;;;2.90;;
19645;SDS011;9971;52.446;13.452;2023-04-01T22:10:39;5.60;;;2.70;;
19645;SDS011;9971;52.446;13.452;2023-04-01T22:15:45;4.47;;;3.17;;
19645;SDS011;9971;52.446;13.452;2023-04-01T22:31:45;5.53;;;3.50;;
19645;SDS011;9971;52.446;13.452;2023-04-01T22:36:53;2.97;;;2.60;;
19645;SDS011;9971;52.446;13.452;2023-04-01T22:42:16;3.60;;;2.50;;
19645;SDS011;9971;52.446;13.452;2023-04-01T22:47:19;3.77;;;2.60;;
19645;SDS011;9971;52.446;13.452;2023-04-01T22:52:31;3.33;;;2.33;;
19645;SDS011;9971;52.446;13.452;2023-04-01T22:57:40;3.70;;;2.43;;
19645;SDS011;9971;52.446;13.452;2023-04-01T23:02:43;2.67;;;2.30;;
19645;SDS011;9971;52.446;13.452;2023-04-01T23:07:47;2.80;;;2.60;;
19645;SDS011;9971;52.446;13.452;2023-04-01T23:12:50;2.87;;;2.23;;
19645;SDS011;9971;52.446;13.452;2023-04-01T23:19:00;2.70;;;2.50;;
19645;SDS011;9971;52.446;13.452;2023-04-01T23:23:16;3.27;;;2.07;;
19645;SDS011;9971;52.446;13.452;2023-04-01T23:33:33;4.60;;;2.27;;
19645;SDS011;9971;52.446;13.452;2023-04-01T23:38:36;2.33;;;2.05;;
19645;SDS011;9971;52.446;13.452;2023-04-01T23:43:38;2.47;;;2.13;;
19645;SDS011;9971;52.446;13.452;2023-04-01T23:48:40;2.70;;;2.43;;
19645;SDS011;9971;52.446;13.452;2023-04-01T23:53:44;2.90;;;2.30;;
19645;SDS011;9971;52.446;13.452;2023-04-01T23:58:44;2.30;;;2.00;;
